Terminal Aerodrome Forecast
Issued by NWS

Home | Current Version | Previous Version | Text Only | Print | Product List | Glossary On
Versions: 1 2 3 4 5 6 7 8 9 10 11 12 13 14 15
224
FTUS42 KTAE 110954 AAA
TAFDHN
TAF AMD
KDHN 110954Z 1110/1206 10007KT P6SM BKN025
     FM111500 10007KT P6SM BKN050
     FM120400 12006KT 4SM BR OVC025=

USA.gov is the U.S. government's official web portal to all federal, state and local government web resources and services.